Time;durP1;ratioP1;P1;durP2;ratioP2;P2;SDS_P1;SDS_P2;PMS_P1;PMS_P2;Temp;Humidity;BMP_temperature;BMP_pressure;BME280_temperature;BME280_humidity;BME280_pressure;Samples;Min_cycle;Max_cycle;Signal;HPM_P1;HPM_P2
2021/12/11 00:00:52;;;;;;;7.85;4.75;;;1.40;93.70;;;;;;2050618;28;20039;-92
2021/12/11 00:02:01;;;;;;;8.02;4.90;;;1.40;93.70;;;;;;2057601;28;20062;-92
2021/12/11 00:03:08;;;;;;;7.47;4.68;;;1.40;93.60;;;;;;2073403;28;20022;-92
2021/12/11 00:04:14;;;;;;;7.88;5.00;;;1.40;93.70;;;;;;2076046;28;20112;-91
2021/12/11 00:05:16;;;;;;;7.07;4.60;;;1.30;93.70;;;;;;2076864;28;20500;-90
2021/12/11 00:06:27;;;;;;;7.70;4.90;;;1.40;93.70;;;;;;2066642;28;20110;-91
2021/12/11 00:07:29;;;;;;;7.10;4.85;;;1.40;93.80;;;;;;2068280;28;20029;-92
2021/12/11 00:08:32;;;;;;;11.13;5.00;;;1.30;93.70;;;;;;2066158;28;20034;-89
2021/12/11 00:09:39;;;;;;;8.00;4.90;;;1.30;93.70;;;;;;2066540;28;20109;-89
2021/12/11 00:10:59;;;;;;;8.30;4.93;;;1.40;93.70;;;;;;2070002;28;20026;-90
2021/12/11 00:12:05;;;;;;;8.00;4.80;;;1.30;93.70;;;;;;2072482;28;20030;-90
2021/12/11 00:13:13;;;;;;;8.38;5.38;;;1.30;94.00;;;;;;2074959;28;20026;-90
2021/12/11 00:14:14;;;;;;;8.75;5.32;;;1.30;93.70;;;;;;2075206;28;20057;-89
2021/12/11 00:15:20;;;;;;;9.50;5.22;;;1.30;93.70;;;;;;2082002;28;20045;-90
2021/12/11 00:16:22;;;;;;;7.93;4.63;;;1.40;93.80;;;;;;2072828;28;20026;-90
2021/12/11 00:17:30;;;;;;;8.07;4.75;;;1.40;93.80;;;;;;2069838;28;20060;-90
2021/12/11 00:18:30;;;;;;;10.20;5.57;;;1.30;93.80;;;;;;2083457;28;20017;-90
2021/12/11 00:19:36;;;;;;;8.20;5.47;;;1.30;93.80;;;;;;2082840;28;20033;-90
2021/12/11 00:20:49;;;;;;;9.32;5.13;;;1.40;93.80;;;;;;2082699;28;20112;-92
2021/12/11 00:21:50;;;;;;;10.07;5.43;;;1.40;93.80;;;;;;2090519;28;20025;-91
2021/12/11 00:22:52;;;;;;;8.30;5.03;;;1.40;93.80;;;;;;2091182;28;20021;-90
2021/12/11 00:24:26;;;;;;;8.82;5.65;;;1.30;93.70;;;;;;2082520;28;20044;-91
2021/12/11 00:25:27;;;;;;;8.75;5.35;;;1.30;93.80;;;;;;2079086;28;20029;-91
2021/12/11 00:26:32;;;;;;;7.90;5.38;;;1.30;93.80;;;;;;2074178;28;20038;-91
2021/12/11 00:27:36;;;;;;;8.02;4.95;;;1.30;93.80;;;;;;2069737;28;20085;-91
2021/12/11 00:28:49;;;;;;;8.10;5.25;;;1.30;93.80;;;;;;2074749;28;20038;-91
2021/12/11 00:29:51;;;;;;;8.18;4.85;;;1.30;93.80;;;;;;2084480;28;20052;-91
2021/12/11 00:30:52;;;;;;;8.15;5.20;;;1.30;93.80;;;;;;2091471;28;20033;-91
2021/12/11 00:32:08;;;;;;;8.52;5.18;;;1.30;93.80;;;;;;2074025;28;20026;-92
2021/12/11 00:33:22;;;;;;;8.02;4.93;;;1.30;93.80;;;;;;2075144;28;20113;-92
2021/12/11 00:34:24;;;;;;;7.70;4.55;;;1.30;93.80;;;;;;2084421;28;20496;-91
2021/12/11 00:35:24;;;;;;;7.28;4.75;;;1.20;93.70;;;;;;2090274;28;20025;-91
2021/12/11 00:36:32;;;;;;;8.00;5.13;;;1.20;93.70;;;;;;2081616;28;20033;-91
2021/12/11 00:37:33;;;;;;;8.13;5.18;;;1.20;93.70;;;;;;2072951;28;20049;-91
2021/12/11 00:38:34;;;;;;;7.70;5.18;;;1.20;93.80;;;;;;2073448;28;20037;-91
2021/12/11 00:40:03;;;;;;;7.40;4.88;;;1.20;93.80;;;;;;2074311;28;20034;-91
2021/12/11 00:41:07;;;;;;;9.05;5.13;;;1.20;93.80;;;;;;2081168;28;20515;-91
2021/12/11 00:42:12;;;;;;;9.20;5.30;;;1.20;93.80;;;;;;2075015;28;20448;-90
2021/12/11 00:43:17;;;;;;;8.30;5.35;;;1.20;93.80;;;;;;2072911;28;20054;-91
2021/12/11 00:44:20;;;;;;;8.60;5.13;;;1.20;93.80;;;;;;2074047;28;20022;-90
2021/12/11 00:45:25;;;;;;;9.48;5.68;;;1.20;93.80;;;;;;2058469;28;20594;-90
2021/12/11 00:46:27;;;;;;;7.43;5.45;;;1.20;93.80;;;;;;2074704;28;20096;-91
2021/12/11 00:47:30;;;;;;;8.05;5.35;;;1.20;93.80;;;;;;2082607;28;20105;-90
2021/12/11 00:48:32;;;;;;;8.77;5.35;;;1.20;93.80;;;;;;2084041;28;20065;-91
2021/12/11 00:49:33;;;;;;;8.52;5.30;;;1.20;93.80;;;;;;2074938;28;20105;-91
2021/12/11 00:50:45;;;;;;;8.40;4.93;;;1.20;93.80;;;;;;2064420;28;20034;-91
2021/12/11 00:51:54;;;;;;;8.70;5.60;;;1.20;93.90;;;;;;2076072;28;20037;-90
2021/12/11 00:53:06;;;;;;;8.18;4.80;;;1.10;93.80;;;;;;2080834;28;20455;-91
2021/12/11 00:54:07;;;;;;;8.15;5.15;;;1.10;93.80;;;;;;2084165;28;20025;-91
2021/12/11 00:55:19;;;;;;;7.38;4.93;;;1.10;93.90;;;;;;2089576;28;20027;-91
2021/12/11 00:56:21;;;;;;;9.38;5.35;;;1.10;93.90;;;;;;2086627;28;20033;-90
2021/12/11 00:57:22;;;;;;;8.20;5.45;;;1.10;93.90;;;;;;2081447;28;20052;-89
2021/12/11 00:58:29;;;;;;;7.88;5.35;;;1.10;94.20;;;;;;2073917;28;20117;-91
2021/12/11 00:59:29;;;;;;;7.10;4.80;;;1.10;94.00;;;;;;2080694;28;20029;-91
2021/12/11 01:00:40;;;;;;;8.95;5.43;;;1.10;93.90;;;;;;2082896;28;20061;-90
2021/12/11 01:01:49;;;;;;;;;;;1.10;94.00;;;;;;2083339;28;20387;-90
2021/12/11 01:02:55;;;;;;;7.72;4.80;;;1.10;93.90;;;;;;2081228;28;19967;-91
2021/12/11 01:04:11;;;;;;;7.60;4.85;;;1.00;93.90;;;;;;2082966;28;20124;-91
2021/12/11 01:05:12;;;;;;;7.07;4.82;;;1.10;93.90;;;;;;2082452;28;20068;-91
2021/12/11 01:06:24;;;;;;;7.43;5.00;;;1.00;93.90;;;;;;2066040;28;20440;-90
2021/12/11 01:07:31;;;;;;;10.30;5.50;;;1.00;93.90;;;;;;2076122;28;20045;-91
2021/12/11 01:08:39;;;;;;;8.50;5.05;;;1.00;94.10;;;;;;2075348;28;20128;-91
2021/12/11 01:09:47;;;;;;;8.02;5.07;;;1.00;93.90;;;;;;2075682;28;20022;-91
2021/12/11 01:10:52;;;;;;;7.88;4.95;;;1.00;93.90;;;;;;2090350;28;20097;-91
2021/12/11 01:12:08;;;;;;;7.97;4.93;;;1.00;93.90;;;;;;2087701;28;20037;-91
2021/12/11 01:13:10;;;;;;;8.75;5.45;;;1.00;93.90;;;;;;2086935;28;20041;-90
2021/12/11 01:14:22;;;;;;;9.18;5.40;;;1.00;93.90;;;;;;2067260;28;20508;-91
2021/12/11 01:15:31;;;;;;;9.30;5.45;;;1.00;93.90;;;;;;2061251;28;20051;-90
2021/12/11 01:16:32;;;;;;;9.10;5.18;;;1.00;93.90;;;;;;2064987;28;20028;-91
2021/12/11 01:17:59;;;;;;;9.13;5.18;;;1.00;93.80;;;;;;2074429;28;20607;-91
2021/12/11 01:19:04;;;;;;;7.85;5.03;;;1.00;93.90;;;;;;2074141;28;20098;-91
2021/12/11 01:20:19;;;;;;;9.27;5.32;;;1.00;93.80;;;;;;2074298;28;20032;-91
2021/12/11 01:21:43;;;;;;;7.97;5.32;;;1.00;93.80;;;;;;2078975;28;20018;-91
2021/12/11 01:22:44;;;;;;;8.32;4.95;;;0.90;93.80;;;;;;2079378;28;20025;-90
2021/12/11 01:25:23;;;;;;;9.40;5.20;;;1.00;93.90;;;;;;2073566;28;20029;-91
2021/12/11 01:26:24;;;;;;;8.63;5.00;;;1.00;93.90;;;;;;2082351;28;20037;-91
2021/12/11 01:27:27;;;;;;;8.27;5.13;;;1.00;94.20;;;;;;2080415;28;20018;-91
2021/12/11 01:28:28;;;;;;;8.88;5.53;;;0.90;93.90;;;;;;2082128;28;20040;-91
2021/12/11 01:29:30;;;;;;;7.53;5.13;;;0.90;93.90;;;;;;2083290;28;20056;-90
2021/12/11 01:30:35;;;;;;;8.75;5.57;;;1.00;93.90;;;;;;2081997;28;20072;-89
2021/12/11 01:31:37;;;;;;;9.25;5.47;;;1.00;93.90;;;;;;2073823;28;20120;-90
2021/12/11 01:32:39;;;;;;;8.07;5.30;;;1.00;94.00;;;;;;2075723;28;20022;-91
2021/12/11 01:33:40;;;;;;;8.98;5.40;;;1.00;94.00;;;;;;2080294;28;20034;-88
2021/12/11 01:34:43;;;;;;;9.38;5.50;;;1.00;94.20;;;;;;2077249;28;20543;-89
2021/12/11 01:35:44;;;;;;;9.18;5.70;;;1.00;94.00;;;;;;2082972;28;20026;-89
2021/12/11 01:36:46;;;;;;;8.98;5.68;;;1.00;94.00;;;;;;2084135;28;20022;-88
2021/12/11 01:37:50;;;;;;;7.60;5.35;;;1.00;94.00;;;;;;2090587;28;20043;-90
2021/12/11 01:39:06;;;;;;;7.63;5.38;;;1.00;94.00;;;;;;2091409;28;20064;-86
2021/12/11 01:40:10;;;;;;;8.80;5.18;;;1.00;94.00;;;;;;2078272;28;20523;-88
2021/12/11 01:41:18;;;;;;;9.32;5.50;;;1.00;94.00;;;;;;2075973;28;20085;-90
2021/12/11 01:42:26;;;;;;;8.40;5.47;;;1.00;94.00;;;;;;2066588;28;20026;-90
2021/12/11 01:43:30;;;;;;;9.35;5.40;;;1.00;94.00;;;;;;2070176;28;20029;-90
2021/12/11 01:44:34;;;;;;;7.95;5.00;;;1.00;94.00;;;;;;2073735;28;20116;-89
2021/12/11 01:45:38;;;;;;;9.55;5.78;;;1.00;94.00;;;;;;2080697;28;20029;-92
2021/12/11 01:46:39;;;;;;;8.88;5.50;;;1.00;94.00;;;;;;2081208;28;20025;-90
2021/12/11 01:47:44;;;;;;;9.70;5.93;;;1.00;94.00;;;;;;2074106;28;20022;-90
2021/12/11 01:48:53;;;;;;;9.20;5.63;;;1.00;94.30;;;;;;2078827;28;20152;-90
2021/12/11 01:49:59;;;;;;;8.55;5.45;;;1.00;94.00;;;;;;2074210;28;20072;-91
2021/12/11 01:51:20;;;;;;;10.20;5.68;;;1.00;94.10;;;;;;2074399;28;20118;-90
2021/12/11 01:52:38;;;;;;;7.97;5.15;;;1.00;94.30;;;;;;2071428;28;20029;-91
2021/12/11 01:53:44;;;;;;;8.30;5.35;;;1.00;94.00;;;;;;2065540;28;20030;-91
2021/12/11 01:54:47;;;;;;;8.73;5.53;;;1.00;94.00;;;;;;2070374;28;20026;-91
2021/12/11 01:56:00;;;;;;;8.73;5.43;;;1.00;94.00;;;;;;2073471;28;20058;-90
2021/12/11 01:57:08;;;;;;;8.85;5.30;;;1.00;94.00;;;;;;2073266;28;20484;-89
2021/12/11 01:58:13;;;;;;;8.40;5.20;;;1.00;94.00;;;;;;2068907;28;20026;-90
2021/12/11 01:59:18;;;;;;;9.20;5.57;;;1.00;94.00;;;;;;2066258;28;20053;-91
2021/12/11 02:00:39;;;;;;;8.90;5.53;;;1.00;94.00;;;;;;2070888;28;20033;-90
2021/12/11 02:01:46;;;;;;;8.00;5.35;;;1.00;94.00;;;;;;2066386;28;20082;-90
2021/12/11 02:02:50;;;;;;;9.57;5.63;;;1.00;94.00;;;;;;2072615;28;20045;-89
2021/12/11 02:03:54;;;;;;;8.57;5.30;;;1.00;94.00;;;;;;2071675;28;20113;-90
2021/12/11 02:04:55;;;;;;;8.10;5.53;;;1.00;94.00;;;;;;2073285;28;20518;-89
2021/12/11 02:05:56;;;;;;;8.75;5.35;;;1.00;94.00;;;;;;2074390;28;20030;-90
2021/12/11 02:07:06;;;;;;;9.90;5.50;;;1.00;94.00;;;;;;2072097;28;20057;-89
2021/12/11 02:08:20;;;;;;;9.85;5.75;;;1.00;94.00;;;;;;2073911;28;20057;-89
2021/12/11 02:09:28;;;;;;;8.80;5.60;;;1.00;94.10;;;;;;2068713;28;20044;-90
2021/12/11 02:10:39;;;;;;;8.95;5.82;;;1.00;94.10;;;;;;2070939;28;20057;-90
2021/12/11 02:11:40;;;;;;;9.88;5.80;;;1.00;94.10;;;;;;2070208;28;20399;-89
2021/12/11 02:12:43;;;;;;;9.57;6.05;;;1.00;94.10;;;;;;2073925;28;20081;-90
2021/12/11 02:14:00;;;;;;;9.60;5.63;;;1.00;94.10;;;;;;2064220;28;20034;-90
2021/12/11 02:15:03;;;;;;;8.50;5.80;;;1.00;94.10;;;;;;2070762;28;20022;-90
2021/12/11 02:16:06;;;;;;;8.57;5.90;;;1.00;94.10;;;;;;2081076;28;20020;-90
2021/12/11 02:17:29;;;;;;;8.82;6.03;;;0.90;94.00;;;;;;2080291;28;20056;-91
2021/12/11 02:18:35;;;;;;;8.25;5.95;;;1.00;94.10;;;;;;2074967;28;20188;-90
2021/12/11 02:19:39;;;;;;;8.88;6.00;;;1.00;94.10;;;;;;2073947;28;20073;-90
2021/12/11 02:20:51;;;;;;;7.93;5.40;;;1.00;94.10;;;;;;2065380;28;20397;-89
2021/12/11 02:21:59;;;;;;;11.15;5.65;;;1.00;94.10;;;;;;2067858;28;20032;-90
2021/12/11 02:23:00;;;;;;;9.45;5.78;;;1.00;94.10;;;;;;2073825;28;20049;-90
2021/12/11 02:24:06;;;;;;;10.18;6.13;;;1.00;94.10;;;;;;2063188;28;20165;-90
2021/12/11 02:25:15;;;;;;;10.50;5.90;;;0.90;94.10;;;;;;2071459;28;20073;-90
2021/12/11 02:26:16;;;;;;;9.50;6.13;;;1.00;94.10;;;;;;2078843;28;20045;-90
2021/12/11 02:27:31;;;;;;;10.10;5.95;;;1.00;94.10;;;;;;2064962;28;20034;-90
2021/12/11 02:28:41;;;;;;;8.48;5.55;;;0.90;94.10;;;;;;2072188;28;20052;-88
2021/12/11 02:29:49;;;;;;;9.68;6.32;;;0.90;94.10;;;;;;2081003;28;20104;-90
2021/12/11 02:31:03;;;;;;;8.95;5.90;;;0.90;94.10;;;;;;2073883;28;20419;-90
2021/12/11 02:32:17;;;;;;;10.15;6.45;;;1.00;94.10;;;;;;2078876;28;20029;-90
2021/12/11 02:33:27;;;;;;;8.50;5.82;;;0.90;94.10;;;;;;2081429;28;20024;-90
2021/12/11 02:34:45;;;;;;;10.48;6.32;;;0.90;94.10;;;;;;2076997;28;21605;-90
2021/12/11 02:36:07;;;;;;;9.52;5.60;;;0.90;94.10;;;;;;2081046;28;20030;-89
2021/12/11 02:37:11;;;;;;;9.70;5.88;;;0.90;94.10;;;;;;2081462;28;20040;-90
2021/12/11 02:38:19;;;;;;;9.77;5.88;;;0.90;94.10;;;;;;2073596;28;20396;-90
2021/12/11 02:39:25;;;;;;;10.43;5.85;;;0.90;94.10;;;;;;2077075;28;20025;-90
2021/12/11 02:40:49;;;;;;;9.88;6.07;;;0.90;94.10;;;;;;2080918;28;20028;-90
2021/12/11 02:41:52;;;;;;;8.95;5.80;;;0.90;94.10;;;;;;2071356;28;20040;-90
2021/12/11 02:43:01;;;;;;;9.25;6.03;;;0.90;94.10;;;;;;2081326;28;20510;-90
2021/12/11 02:44:10;;;;;;;8.05;5.72;;;0.90;94.10;;;;;;2079497;28;20486;-90
2021/12/11 02:45:32;;;;;;;9.70;6.70;;;0.80;94.10;;;;;;2079868;28;20017;-90
2021/12/11 02:46:46;;;;;;;11.75;6.20;;;0.90;94.10;;;;;;2076270;28;20053;-89
2021/12/11 02:47:59;;;;;;;10.38;6.00;;;0.80;94.10;;;;;;2080107;28;20113;-91
2021/12/11 02:49:05;;;;;;;11.65;6.00;;;0.80;94.10;;;;;;2082491;28;20040;-90
2021/12/11 02:50:16;;;;;;;8.10;5.57;;;0.80;94.10;;;;;;2080897;28;20052;-90
2021/12/11 02:51:28;;;;;;;8.48;5.60;;;0.80;94.10;;;;;;2080338;28;20029;-89
2021/12/11 02:52:38;;;;;;;9.70;5.90;;;0.80;94.10;;;;;;2080985;28;20108;-91
2021/12/11 02:53:51;;;;;;;8.77;5.70;;;0.80;94.10;;;;;;2071286;28;20101;-89
2021/12/11 02:55:12;;;;;;;10.32;5.35;;;0.80;94.10;;;;;;2073734;28;20062;-89
2021/12/11 02:56:23;;;;;;;9.05;5.88;;;0.70;94.10;;;;;;2077599;28;20104;-89
2021/12/11 02:57:39;;;;;;;9.07;5.80;;;0.80;94.10;;;;;;2080044;28;20037;-90
2021/12/11 02:58:43;;;;;;;8.73;5.65;;;0.70;94.10;;;;;;2085805;28;20026;-89
2021/12/11 02:59:46;;;;;;;10.27;5.90;;;0.70;94.10;;;;;;2080699;28;20089;-90
2021/12/11 03:00:56;;;;;;;9.23;5.82;;;0.70;94.10;;;;;;2080051;28;20507;-90
2021/12/11 03:02:08;;;;;;;;;;;0.70;94.10;;;;;;2081564;28;20022;-90
2021/12/11 03:03:13;;;;;;;10.07;6.20;;;0.70;94.10;;;;;;2074701;28;19912;-89
2021/12/11 03:04:28;;;;;;;10.93;6.05;;;0.70;94.10;;;;;;2076764;28;20455;-90
2021/12/11 03:05:39;;;;;;;10.40;6.30;;;0.70;94.00;;;;;;2075308;28;20018;-90
2021/12/11 03:06:44;;;;;;;10.00;6.15;;;0.70;94.00;;;;;;2085287;28;20484;-89
2021/12/11 03:07:50;;;;;;;9.95;5.78;;;0.70;94.00;;;;;;2079752;28;20494;-90
2021/12/11 03:08:56;;;;;;;10.65;6.57;;;0.70;94.00;;;;;;2079823;28;20029;-90
2021/12/11 03:09:57;;;;;;;9.90;6.32;;;0.70;94.00;;;;;;2079313;28;20091;-90
2021/12/11 03:11:03;;;;;;;9.05;6.38;;;0.70;94.00;;;;;;2083619;28;20037;-89
2021/12/11 03:12:07;;;;;;;10.60;6.28;;;0.70;94.00;;;;;;2088712;28;20025;-90
2021/12/11 03:13:08;;;;;;;9.95;6.03;;;0.70;94.00;;;;;;2081192;28;20037;-90
2021/12/11 03:14:13;;;;;;;9.57;6.28;;;0.70;94.00;;;;;;2064194;28;20026;-90
2021/12/11 03:15:16;;;;;;;10.18;6.25;;;0.70;94.00;;;;;;2060683;28;20117;-90
2021/12/11 03:16:29;;;;;;;10.27;6.13;;;0.70;94.10;;;;;;2068356;28;20018;-91
2021/12/11 03:17:29;;;;;;;10.98;6.47;;;0.70;94.10;;;;;;2074651;28;20117;-90
2021/12/11 03:18:30;;;;;;;10.50;6.68;;;0.70;94.10;;;;;;2072828;28;20452;-90
2021/12/11 03:19:35;;;;;;;9.13;6.20;;;0.70;94.10;;;;;;2081022;28;20029;-90
2021/12/11 03:20:37;;;;;;;9.23;6.30;;;0.70;94.10;;;;;;2084517;28;20018;-90
2021/12/11 03:21:39;;;;;;;10.32;6.55;;;0.70;94.10;;;;;;2072544;28;20117;-90
2021/12/11 03:22:43;;;;;;;10.00;6.25;;;0.70;94.10;;;;;;2080553;28;20032;-90
2021/12/11 03:23:43;;;;;;;10.07;6.55;;;0.70;94.10;;;;;;2089031;28;20021;-90
2021/12/11 03:24:45;;;;;;;9.77;6.05;;;0.70;94.20;;;;;;2083539;28;20030;-90
2021/12/11 03:25:46;;;;;;;10.77;6.32;;;0.70;94.20;;;;;;2073262;28;20503;-90
2021/12/11 03:26:50;;;;;;;9.77;6.38;;;0.70;94.20;;;;;;2072047;28;20029;-90
2021/12/11 03:27:51;;;;;;;10.25;6.70;;;0.80;94.20;;;;;;2078743;28;20559;-89
2021/12/11 03:28:54;;;;;;;10.30;6.88;;;0.80;94.30;;;;;;2089724;28;20040;-90
2021/12/11 03:29:54;;;;;;;9.55;6.72;;;0.70;94.20;;;;;;2081162;28;20400;-90
2021/12/11 03:30:59;;;;;;;9.77;6.47;;;0.80;94.30;;;;;;2075845;28;20036;-90
2021/12/11 03:32:01;;;;;;;10.90;6.40;;;0.80;94.30;;;;;;2082677;28;20049;-88
2021/12/11 03:33:09;;;;;;;10.85;6.35;;;0.80;94.30;;;;;;2083485;28;20044;-88
2021/12/11 03:34:18;;;;;;;11.05;6.70;;;0.80;94.30;;;;;;2073784;28;20019;-83
2021/12/11 03:35:20;;;;;;;9.63;6.27;;;0.80;94.30;;;;;;2080184;28;20018;-88
2021/12/11 03:36:22;;;;;;;10.27;6.32;;;0.80;94.20;;;;;;2083974;28;20284;-83
2021/12/11 03:37:23;;;;;;;9.88;6.35;;;0.90;94.30;;;;;;2092952;28;20059;-88
2021/12/11 03:38:25;;;;;;;10.65;6.70;;;0.90;94.20;;;;;;2090587;28;20014;-88
2021/12/11 03:39:30;;;;;;;9.27;6.45;;;0.90;94.20;;;;;;2088563;28;20037;-89
2021/12/11 03:40:31;;;;;;;10.15;6.25;;;0.90;94.50;;;;;;2075355;28;20021;-90
2021/12/11 03:41:32;;;;;;;9.27;6.50;;;0.90;94.50;;;;;;2081490;28;20033;-89
2021/12/11 03:42:37;;;;;;;9.93;6.32;;;0.90;94.20;;;;;;2064181;28;20037;-89
2021/12/11 03:43:39;;;;;;;11.00;6.63;;;0.90;94.20;;;;;;2067002;28;20062;-90
2021/12/11 03:44:39;;;;;;;9.95;6.60;;;0.90;94.50;;;;;;2081604;28;20022;-89
2021/12/11 03:45:43;;;;;;;10.13;6.65;;;0.90;94.20;;;;;;2082679;28;20022;-90
2021/12/11 03:46:47;;;;;;;8.50;6.03;;;0.90;94.20;;;;;;2082315;28;20025;-90
2021/12/11 03:47:55;;;;;;;10.35;6.55;;;0.90;94.20;;;;;;2089920;28;20028;-89
2021/12/11 03:49:00;;;;;;;10.38;6.78;;;0.90;94.20;;;;;;2091173;28;20043;-89
2021/12/11 03:50:04;;;;;;;9.30;6.10;;;0.90;94.50;;;;;;2091625;28;20021;-89
2021/12/11 03:51:12;;;;;;;9.80;6.40;;;0.90;94.20;;;;;;2091450;28;20136;-89
2021/12/11 03:52:14;;;;;;;9.85;6.82;;;0.90;94.20;;;;;;2087036;28;20021;-89
2021/12/11 03:53:16;;;;;;;9.27;6.40;;;0.90;94.20;;;;;;2073068;28;20514;-89
2021/12/11 03:54:30;;;;;;;9.55;6.50;;;0.80;94.20;;;;;;2066538;28;20030;-88
2021/12/11 03:55:38;;;;;;;10.05;6.88;;;0.90;94.20;;;;;;2074077;28;20030;-89
2021/12/11 03:56:40;;;;;;;10.25;6.80;;;0.90;94.20;;;;;;2074541;28;20064;-89
2021/12/11 03:57:44;;;;;;;9.48;6.35;;;0.90;94.20;;;;;;2081509;28;20546;-89
2021/12/11 03:58:50;;;;;;;9.85;6.47;;;0.90;94.20;;;;;;2064633;28;20054;-90
2021/12/11 03:59:53;;;;;;;9.88;6.50;;;0.90;94.20;;;;;;2072193;28;20025;-90
2021/12/11 04:01:14;;;;;;;9.45;6.65;;;0.90;94.20;;;;;;2066837;28;20049;-90
2021/12/11 04:02:20;;;;;;;10.55;6.63;;;0.80;94.20;;;;;;2071444;28;20025;-90
2021/12/11 04:03:25;;;;;;;11.00;7.15;;;0.80;94.20;;;;;;2074855;28;20556;-90
2021/12/11 04:04:31;;;;;;;9.77;6.50;;;0.80;94.20;;;;;;2083269;28;20117;-90
2021/12/11 04:05:34;;;;;;;8.35;6.03;;;0.80;94.20;;;;;;2080988;28;20018;-90
2021/12/11 04:06:35;;;;;;;10.50;6.63;;;0.80;94.20;;;;;;2070415;28;20076;-90
2021/12/11 04:07:41;;;;;;;10.52;6.75;;;0.80;94.20;;;;;;2080135;28;20100;-90
2021/12/11 04:08:43;;;;;;;10.75;6.15;;;0.80;94.20;;;;;;2091071;28;20098;-91
2021/12/11 04:09:44;;;;;;;9.10;6.07;;;0.70;94.20;;;;;;2070752;28;20087;-90
2021/12/11 04:10:46;;;;;;;10.27;6.43;;;0.80;94.20;;;;;;2066082;28;20018;-90
2021/12/11 04:11:49;;;;;;;8.80;6.57;;;0.80;94.20;;;;;;2074188;28;20080;-89
2021/12/11 04:12:50;;;;;;;8.75;6.30;;;0.80;94.20;;;;;;2074031;28;20428;-89
2021/12/11 04:13:54;;;;;;;10.52;6.53;;;0.80;94.20;;;;;;2083518;28;20049;-90
2021/12/11 04:14:55;;;;;;;10.52;6.65;;;0.80;94.20;;;;;;2090674;28;20036;-90
2021/12/11 04:15:56;;;;;;;10.80;6.53;;;0.80;94.20;;;;;;2081839;28;20430;-91
2021/12/11 04:16:58;;;;;;;11.07;6.70;;;0.80;94.20;;;;;;2065189;28;20022;-91
2021/12/11 04:17:59;;;;;;;10.95;6.38;;;0.70;94.20;;;;;;2058792;28;20098;-91
2021/12/11 04:19:01;;;;;;;10.02;6.40;;;0.70;94.20;;;;;;2067600;28;20022;-91
2021/12/11 04:20:08;;;;;;;10.15;6.78;;;0.70;94.20;;;;;;2074258;28;20026;-91
2021/12/11 04:21:09;;;;;;;9.98;6.20;;;0.70;94.20;;;;;;2075551;28;20029;-91
2021/12/11 04:22:10;;;;;;;11.15;7.03;;;0.70;94.20;;;;;;2090028;28;20025;-91
2021/12/11 04:23:13;;;;;;;10.45;6.68;;;0.70;94.40;;;;;;2093766;28;20056;-91
2021/12/11 04:24:22;;;;;;;9.48;6.32;;;0.70;94.20;;;;;;2086375;28;20041;-91
2021/12/11 04:25:26;;;;;;;10.63;7.03;;;0.70;94.20;;;;;;2086246;28;20025;-91
2021/12/11 04:26:28;;;;;;;9.30;6.30;;;0.70;94.20;;;;;;2074642;28;20393;-91
2021/12/11 04:27:29;;;;;;;10.63;6.38;;;0.70;94.30;;;;;;2074730;28;20037;-89
2021/12/11 04:28:35;;;;;;;10.95;6.63;;;0.70;94.20;;;;;;2074906;28;20058;-90
2021/12/11 04:29:36;;;;;;;11.05;6.55;;;0.70;94.30;;;;;;2083065;28;20033;-91
2021/12/11 04:30:39;;;;;;;11.98;6.72;;;0.70;94.20;;;;;;2087774;28;20088;-92
2021/12/11 04:31:42;;;;;;;9.32;6.03;;;0.70;94.30;;;;;;2081284;28;20467;-90
2021/12/11 04:32:46;;;;;;;10.73;6.40;;;0.70;94.30;;;;;;2073238;28;20072;-91
2021/12/11 04:33:49;;;;;;;9.27;6.10;;;0.70;94.20;;;;;;2081966;28;20186;-91
2021/12/11 04:34:50;;;;;;;9.07;6.10;;;0.70;94.30;;;;;;2082030;28;20025;-90
2021/12/11 04:35:51;;;;;;;9.85;6.25;;;0.70;94.30;;;;;;2073730;28;20492;-91
2021/12/11 04:37:20;;;;;;;9.60;6.25;;;0.70;94.30;;;;;;2082690;28;20109;-91
2021/12/11 04:38:21;;;;;;;9.57;6.28;;;0.70;94.30;;;;;;2074293;28;20124;-91
2021/12/11 04:39:25;;;;;;;10.77;6.55;;;0.70;94.30;;;;;;2082178;28;20036;-91
2021/12/11 04:40:31;;;;;;;9.43;6.60;;;0.70;94.30;;;;;;2073970;28;20528;-91
2021/12/11 04:41:41;;;;;;;10.50;6.32;;;0.70;94.20;;;;;;2076816;28;20085;-91
2021/12/11 04:44:05;;;;;;;;;;;0.70;94.20;;;;;;2090877;28;20033;-91
2021/12/11 04:45:11;;;;;;;9.00;5.97;;;0.80;94.20;;;;;;2100427;28;19948;-91
2021/12/11 04:46:13;;;;;;;9.43;5.85;;;0.70;94.20;;;;;;2087547;28;20083;-91
2021/12/11 04:47:29;;;;;;;9.18;5.53;;;0.80;94.20;;;;;;2058623;28;20023;-90
2021/12/11 04:48:50;;;;;;;8.73;5.60;;;0.80;94.20;;;;;;2062060;28;20031;-91
2021/12/11 04:49:57;;;;;;;;;;;0.80;94.10;;;;;;2074372;28;20022;-91
2021/12/11 04:51:05;;;;;;;9.63;5.50;;;0.80;94.10;;;;;;2069276;28;19917;-91
2021/12/11 04:55:09;;;;;;;9.77;5.53;;;0.90;94.10;;;;;;2082838;28;20029;-89
2021/12/11 05:00:08;;;;;;;9.43;6.00;;;0.90;94.10;;;;;;2074297;28;20029;-90
2021/12/11 05:05:06;;;;;;;9.32;5.15;;;1.00;94.10;;;;;;2070232;28;20596;-91
2021/12/11 05:06:25;;;;;;;9.30;5.45;;;1.00;94.10;;;;;;2072297;28;20025;-90
2021/12/11 05:07:44;;;;;;;9.25;5.95;;;1.00;94.10;;;;;;2071062;28;20563;-91
2021/12/11 05:09:14;;;;;;;9.50;5.57;;;1.00;94.10;;;;;;2079032;28;20038;-91
2021/12/11 05:10:22;;;;;;;8.85;5.43;;;1.00;94.10;;;;;;2089038;28;20046;-91
2021/12/11 05:11:36;;;;;;;8.30;5.40;;;1.00;94.10;;;;;;2081546;28;20029;-90
2021/12/11 05:12:37;;;;;;;10.05;5.93;;;1.10;94.10;;;;;;2073903;28;20014;-90
2021/12/11 05:13:38;;;;;;;8.52;5.82;;;1.10;94.10;;;;;;2080739;28;20065;-91
2021/12/11 05:14:40;;;;;;;10.45;6.03;;;1.10;94.10;;;;;;2077416;28;20026;-90
2021/12/11 05:15:44;;;;;;;10.52;6.13;;;1.10;94.30;;;;;;2071370;28;20049;-90
2021/12/11 05:16:46;;;;;;;9.57;6.20;;;1.10;94.10;;;;;;2081749;28;20044;-89
2021/12/11 05:17:47;;;;;;;10.13;6.43;;;1.20;94.10;;;;;;2082498;28;20025;-90
2021/12/11 05:18:48;;;;;;;11.52;6.13;;;1.20;94.20;;;;;;2071603;28;20132;-90
2021/12/11 05:19:49;;;;;;;10.80;6.55;;;1.20;94.20;;;;;;2071929;28;20444;-89
2021/12/11 05:20:54;;;;;;;11.32;6.78;;;1.20;94.20;;;;;;2072111;28;20032;-90
2021/12/11 05:21:55;;;;;;;10.25;6.72;;;1.20;94.20;;;;;;2074380;28;20038;-90
2021/12/11 05:22:56;;;;;;;11.70;6.43;;;1.20;94.20;;;;;;2086651;28;20024;-90
2021/12/11 05:23:57;;;;;;;11.52;7.03;;;1.20;94.20;;;;;;2087480;28;20494;-90
2021/12/11 05:24:58;;;;;;;12.45;6.68;;;1.20;94.20;;;;;;2089773;28;20053;-90
2021/12/11 05:25:58;;;;;;;10.85;6.60;;;1.20;94.20;;;;;;2090087;28;20052;-90
2021/12/11 05:27:01;;;;;;;11.07;6.93;;;1.20;94.20;;;;;;2089949;28;20413;-90
2021/12/11 05:28:02;;;;;;;12.32;7.10;;;1.30;94.20;;;;;;2082279;28;20057;-90
2021/12/11 05:29:05;;;;;;;11.85;7.03;;;1.30;94.20;;;;;;2073204;28;20044;-90
2021/12/11 05:30:11;;;;;;;11.38;6.93;;;1.30;94.20;;;;;;2075175;28;20080;-90
2021/12/11 05:31:13;;;;;;;10.93;6.72;;;1.30;94.20;;;;;;2072522;28;20026;-90
2021/12/11 05:32:17;;;;;;;11.90;7.32;;;1.30;94.30;;;;;;2081582;28;20018;-88
2021/12/11 05:33:19;;;;;;;12.82;7.07;;;1.30;94.20;;;;;;2086544;28;20094;-87
2021/12/11 05:34:19;;;;;;;14.02;7.57;;;1.40;94.30;;;;;;2099577;28;20080;-86
2021/12/11 05:35:20;;;;;;;11.60;7.03;;;1.40;94.20;;;;;;2099736;28;20013;-88
2021/12/11 05:36:21;;;;;;;11.85;7.28;;;1.40;94.20;;;;;;2081465;28;20029;-86
2021/12/11 05:37:22;;;;;;;11.43;7.03;;;1.40;94.20;;;;;;2082238;28;20093;-88
2021/12/11 05:38:26;;;;;;;12.60;6.85;;;1.40;94.20;;;;;;2097287;28;20021;-87
2021/12/11 05:39:27;;;;;;;12.18;6.90;;;1.40;94.20;;;;;;2089819;28;20037;-89
2021/12/11 05:40:29;;;;;;;13.07;6.90;;;1.40;94.20;;;;;;2081677;28;20032;-91
2021/12/11 05:41:29;;;;;;;11.85;7.10;;;1.40;94.20;;;;;;2071957;28;20018;-90
2021/12/11 05:42:30;;;;;;;12.95;7.18;;;1.40;94.20;;;;;;2065966;28;20042;-89
2021/12/11 05:43:33;;;;;;;11.68;7.15;;;1.40;94.20;;;;;;2072214;28;20393;-90
2021/12/11 05:44:35;;;;;;;13.95;7.63;;;1.40;94.20;;;;;;2088675;28;20053;-90
2021/12/11 05:45:36;;;;;;;10.82;6.47;;;1.50;94.20;;;;;;2081298;28;20021;-89
2021/12/11 05:46:37;;;;;;;13.25;7.30;;;1.40;94.20;;;;;;2073168;28;20038;-89
2021/12/11 05:47:38;;;;;;;12.32;6.88;;;1.50;94.20;;;;;;2080911;28;20029;-90
2021/12/11 05:48:41;;;;;;;12.77;7.18;;;1.50;94.20;;;;;;2076346;28;20036;-89
2021/12/11 05:49:44;;;;;;;12.20;7.32;;;1.50;94.20;;;;;;2081288;28;20036;-91
2021/12/11 05:50:54;;;;;;;12.65;7.35;;;1.50;94.20;;;;;;2073599;28;20081;-90
2021/12/11 05:51:54;;;;;;;13.13;7.25;;;1.50;94.20;;;;;;2076031;28;20059;-90
2021/12/11 05:52:55;;;;;;;12.82;6.65;;;1.50;94.20;;;;;;2090732;28;20124;-89
2021/12/11 05:54:00;;;;;;;12.32;7.20;;;1.50;94.20;;;;;;2082056;28;20029;-91
2021/12/11 05:55:01;;;;;;;11.68;6.95;;;1.50;94.20;;;;;;2082432;28;20048;-90
2021/12/11 05:56:13;;;;;;;11.35;7.28;;;1.50;94.20;;;;;;2097886;28;20508;-90
2021/12/11 05:57:16;;;;;;;13.07;6.75;;;1.50;94.20;;;;;;2075479;28;20030;-91
2021/12/11 05:58:34;;;;;;;12.68;7.07;;;1.50;94.20;;;;;;2073552;28;20029;-90
2021/12/11 05:59:37;;;;;;;11.90;6.93;;;1.50;94.20;;;;;;2071840;28;20072;-90
2021/12/11 06:00:45;;;;;;;11.52;7.30;;;1.50;94.20;;;;;;2067122;28;20049;-90
2021/12/11 06:01:53;;;;;;;13.77;7.20;;;1.50;94.20;;;;;;2074578;28;20026;-90